createdAt,value
2022-08-27T00:03:12.409Z,99311.81
2022-08-27T00:08:14.232Z,99319.53
2022-08-27T00:13:16.175Z,99319.53
2022-08-27T00:18:22.449Z,99316.97
2022-08-27T00:23:24.673Z,99306.09
2022-08-27T00:28:29.172Z,99300.03
2022-08-27T00:33:31.009Z,99301.56
2022-08-27T00:38:32.990Z,99303.53
2022-08-27T00:43:48.322Z,99308.66
2022-08-27T00:48:52.665Z,99298.41
2022-08-27T00:53:56.679Z,99298.53
2022-08-27T00:58:58.568Z,99297.88
2022-08-27T01:04:03.717Z,99298.97
2022-08-27T01:09:10.047Z,99297.69
2022-08-27T01:14:12.842Z,99309.72
2022-08-27T01:19:46.782Z,99300.03
2022-08-27T01:24:52.001Z,99305.16
2022-08-27T01:29:53.900Z,99314.75
2022-08-27T01:34:57.005Z,99321.25
2022-08-27T01:39:59.142Z,99320.84
2022-08-27T01:45:13.257Z,99313.38
2022-08-27T01:50:18.750Z,99318.28
2022-08-27T01:55:24.973Z,99320.84
2022-08-27T02:00:30.404Z,99313.22
2022-08-27T02:05:32.716Z,99317.63
2022-08-27T02:10:48.381Z,99324.41
2022-08-27T02:15:50.388Z,99324.25
2022-08-27T02:20:52.275Z,99331.94
2022-08-27T02:25:54.206Z,99333.25
2022-08-27T02:30:56.091Z,99333.66
2022-08-27T02:35:57.772Z,99336.03
2022-08-27T02:40:59.492Z,99338.44
2022-08-27T02:46:01.647Z,99336.00
2022-08-27T02:51:06.061Z,99336.38
2022-08-27T02:56:08.129Z,99333.66
2022-08-27T03:01:13.681Z,99331.94
2022-08-27T03:06:16.194Z,99334.50
2022-08-27T03:11:18.060Z,99332.28
2022-08-27T03:16:19.902Z,99338.16
2022-08-27T03:21:26.499Z,99326.44
2022-08-27T03:26:29.528Z,99328.81
2022-08-27T03:31:31.421Z,99320.44
2022-08-27T03:36:33.456Z,99326.59
2022-08-27T03:41:39.956Z,99323.50
2022-08-27T03:46:56.292Z,99325.31
2022-08-27T03:51:58.212Z,99319.53
2022-08-27T03:56:59.883Z,99328.06
2022-08-27T04:02:02.405Z,99327.91
2022-08-27T04:07:04.941Z,99337.28
2022-08-27T04:12:06.760Z,99339.00
2022-08-27T04:17:08.514Z,99343.28
2022-08-27T04:22:10.193Z,99352.72
2022-08-27T04:27:14.398Z,99350.75
2022-08-27T04:32:16.100Z,99354.16
2022-08-27T04:37:17.899Z,99357.56
2022-08-27T04:42:25.429Z,99349.94
2022-08-27T04:47:27.200Z,99353.41
2022-08-27T04:52:29.051Z,99368.78
2022-08-27T04:57:30.732Z,99377.22
2022-08-27T05:02:32.546Z,99372.97
2022-08-27T05:07:34.509Z,99370.41
2022-08-27T05:12:36.137Z,99384.13
2022-08-27T05:17:37.779Z,99385.09
2022-08-27T05:22:39.671Z,99390.34
2022-08-27T05:27:41.566Z,99390.41
2022-08-27T05:32:43.608Z,99396.56
2022-08-27T05:37:45.984Z,99413.44
2022-08-27T05:42:51.103Z,99414.22
2022-08-27T05:47:53.165Z,99421.78
2022-08-27T05:52:54.855Z,99425.19
2022-08-27T05:57:56.548Z,99425.31
2022-08-27T06:02:58.226Z,99421.91
2022-08-27T06:08:00.083Z,99435.63
2022-08-27T06:13:03.480Z,99433.41
2022-08-27T06:18:05.325Z,99432.00
2022-08-27T06:23:07.343Z,99436.25
2022-08-27T06:28:09.644Z,99436.44
2022-08-27T06:33:11.397Z,99440.34
2022-08-27T06:38:13.256Z,99430.38
2022-08-27T06:43:14.889Z,99436.78
2022-08-27T06:48:17.348Z,99447.41
2022-08-27T06:53:19.337Z,99437.81
2022-08-27T06:58:26.652Z,99444.69
2022-08-27T07:03:28.542Z,99441.63
2022-08-27T07:08:30.376Z,99453.72
2022-08-27T07:13:32.175Z,99446.91
2022-08-27T07:18:34.433Z,99445.72
2022-08-27T07:23:37.624Z,99444.38
2022-08-27T07:28:40.901Z,99441.97
2022-08-27T07:33:50.620Z,99448.00
2022-08-27T07:39:01.203Z,99451.56
2022-08-27T07:44:26.068Z,99457.69
2022-08-27T07:49:31.227Z,99449.22
2022-08-27T07:54:33.320Z,99459.38
2022-08-27T07:59:35.489Z,99446.84
2022-08-27T08:04:37.173Z,99439.84
2022-08-27T08:09:38.833Z,99452.84
2022-08-27T08:14:40.581Z,99439.69
2022-08-27T08:19:47.439Z,99436.31
2022-08-27T08:24:59.426Z,99443.00
2022-08-27T08:30:01.517Z,99436.81
2022-08-27T08:35:05.490Z,99446.91
2022-08-27T08:40:08.081Z,99438.69
2022-08-27T08:45:14.001Z,99428.06
2022-08-27T08:50:23.868Z,99426.03
2022-08-27T08:55:43.800Z,99421.28
2022-08-27T09:00:48.910Z,99421.06
2022-08-27T09:06:05.419Z,99417.47
2022-08-27T09:11:34.170Z,99416.06
2022-08-27T09:16:36.994Z,99410.88
2022-08-27T09:21:49.464Z,99419.47
2022-08-27T09:26:52.057Z,99422.16
2022-08-27T09:31:59.144Z,99414.84
2022-08-27T09:37:24.238Z,99407.16
2022-08-27T09:42:41.399Z,99391.38
2022-08-27T09:47:49.436Z,99393.84
2022-08-27T09:52:55.344Z,99386.22
2022-08-27T09:57:57.274Z,99386.53
2022-08-27T10:03:00.813Z,99388.47
2022-08-27T10:08:10.878Z,99380.53
2022-08-27T10:13:28.880Z,99374.91
2022-08-27T10:18:48.987Z,99379.84
2022-08-27T10:24:05.894Z,99386.06
2022-08-27T10:29:19.864Z,99384.81
2022-08-27T10:34:50.847Z,99389.81
2022-08-27T10:40:14.424Z,99381.22
2022-08-27T10:45:49.093Z,99369.97
2022-08-27T10:51:04.808Z,99375.16
2022-08-27T10:56:28.545Z,99366.38
2022-08-27T11:01:48.445Z,99371.81
2022-08-27T11:06:56.896Z,99367.84
2022-08-27T11:12:18.418Z,99366.03
2022-08-27T11:17:44.021Z,99363.44
2022-08-27T11:22:51.034Z,99351.84
2022-08-27T11:27:56.147Z,99345.00
2022-08-27T11:33:14.217Z,99336.16
2022-08-27T11:38:27.525Z,99336.56
2022-08-27T11:43:35.402Z,99339.34
2022-08-27T11:48:41.853Z,99341.66
2022-08-27T11:53:57.500Z,99327.47
2022-08-27T11:59:23.700Z,99332.13
2022-08-27T12:04:31.511Z,99345.25
2022-08-27T12:10:11.407Z,99342.72
2022-08-27T12:15:27.548Z,99329.63
2022-08-27T12:20:36.252Z,99348.34
2022-08-27T12:25:38.493Z,99340.34
2022-08-27T12:30:52.008Z,99349.09
2022-08-27T12:35:56.431Z,99355.34
2022-08-27T12:41:04.012Z,99343.44
2022-08-27T12:46:12.810Z,99344.81
2022-08-27T12:51:23.206Z,99326.81
2022-08-27T12:56:37.313Z,99324.47
2022-08-27T13:02:04.416Z,99321.75
2022-08-27T13:07:06.218Z,99305.09
2022-08-27T13:12:17.001Z,99286.66
2022-08-27T13:17:22.657Z,99285.28
2022-08-27T13:22:29.112Z,99281.28
2022-08-27T13:27:33.809Z,99282.78
2022-08-27T13:32:37.642Z,99288.91
2022-08-27T13:37:44.968Z,99293.16
2022-08-27T13:42:46.996Z,99288.22
2022-08-27T13:47:49.917Z,99293.19
2022-08-27T13:53:12.084Z,99284.34
2022-08-27T13:58:19.557Z,99300.72
2022-08-27T14:03:32.164Z,99302.34
2022-08-27T14:08:36.053Z,99314.75
2022-08-27T14:13:41.125Z,99314.41
2022-08-27T14:19:13.313Z,99311.81
2022-08-27T14:24:15.247Z,99312.72
2022-08-27T14:29:17.841Z,99299.53
2022-08-27T14:34:26.697Z,99297.84
2022-08-27T14:39:28.616Z,99281.28
2022-08-27T14:44:31.091Z,99276.53
2022-08-27T14:49:37.644Z,99271.72
2022-08-27T14:54:41.042Z,99271.75
2022-08-27T14:59:42.854Z,99263.56
2022-08-27T15:04:47.257Z,99250.69
2022-08-27T15:09:50.060Z,99249.00
2022-08-27T15:14:51.748Z,99248.81
2022-08-27T15:19:53.357Z,99250.31
2022-08-27T15:24:57.109Z,99253.50
2022-08-27T15:29:59.902Z,99255.06
2022-08-27T15:35:05.359Z,99261.34
2022-08-27T15:40:08.137Z,99266.66
2022-08-27T15:45:12.944Z,99268.91
2022-08-27T15:50:14.868Z,99276.00
2022-08-27T15:55:23.954Z,99275.88
2022-08-27T16:00:26.977Z,99283.13
2022-08-27T16:05:34.308Z,99293.63
2022-08-27T16:10:36.949Z,99289.72
2022-08-27T16:15:40.731Z,99284.19
2022-08-27T16:20:42.725Z,99278.97
2022-08-27T16:25:44.618Z,99291.56
2022-08-27T16:30:47.567Z,99293.03
2022-08-27T16:35:50.410Z,99285.59
2022-08-27T16:40:54.643Z,99286.19
2022-08-27T16:45:58.870Z,99284.25
2022-08-27T16:51:01.120Z,99296.13
2022-08-27T16:56:03.485Z,99305.19
2022-08-27T17:01:08.568Z,99313.84
2022-08-27T17:06:10.809Z,99317.78
2022-08-27T17:11:16.353Z,99322.75
2022-08-27T17:16:21.880Z,99339.56
2022-08-27T17:21:29.149Z,99341.03
2022-08-27T17:26:32.936Z,99350.38
2022-08-27T17:31:37.189Z,99348.56
2022-08-27T17:36:38.789Z,99359.91
2022-08-27T17:41:44.065Z,99369.72
2022-08-27T17:46:46.132Z,99373.34
2022-08-27T17:51:49.493Z,99373.34
2022-08-27T17:56:51.685Z,99387.66
2022-08-27T18:01:53.815Z,99390.53
2022-08-27T18:06:55.515Z,99407.56
2022-08-27T18:11:58.403Z,99410.72
2022-08-27T18:17:00.261Z,99414.09
2022-08-27T18:22:02.141Z,99419.84
2022-08-27T18:27:04.179Z,99416.22
2022-08-27T18:32:06.377Z,99423.44
2022-08-27T18:37:08.225Z,99428.13
2022-08-27T18:42:11.903Z,99428.06
2022-08-27T18:47:13.637Z,99429.69
2022-08-27T18:52:22.803Z,99427.69
2022-08-27T18:57:24.716Z,99426.22
2022-08-27T19:02:27.535Z,99432.44
2022-08-27T19:07:29.929Z,99418.06
2022-08-27T19:12:32.020Z,99427.38
2022-08-27T19:17:35.943Z,99414.94
2022-08-27T19:22:38.342Z,99412.78
2022-08-27T19:27:40.471Z,99405.22
2022-08-27T19:32:42.821Z,99397.59
2022-08-27T19:37:52.705Z,99400.53
2022-08-27T19:42:55.292Z,99404.47
2022-08-27T19:47:56.929Z,99408.50
2022-08-27T19:52:58.941Z,99416.59
2022-08-27T19:58:00.624Z,99429.31
2022-08-27T20:03:02.462Z,99431.50
2022-08-27T20:08:05.506Z,99438.66
2022-08-27T20:13:07.986Z,99460.47
2022-08-27T20:18:10.748Z,99475.91
2022-08-27T20:23:13.133Z,99485.81
2022-08-27T20:28:38.431Z,99485.97
2022-08-27T20:33:37.343Z,99478.00
2022-08-27T20:38:39.644Z,99487.25
2022-08-27T20:43:41.361Z,99473.81
2022-08-27T20:48:43.036Z,99481.88
2022-08-27T20:53:44.885Z,99507.19
2022-08-27T20:59:05.015Z,99495.66
2022-08-27T21:04:06.665Z,99488.16
2022-08-27T21:09:08.436Z,99489.19
2022-08-27T21:14:10.057Z,99492.00
2022-08-27T21:19:12.309Z,99495.88
2022-08-27T21:24:14.433Z,99494.63
2022-08-27T21:29:17.684Z,99488.41
2022-08-27T21:34:19.325Z,99471.75
2022-08-27T21:39:21.149Z,99468.84
2022-08-27T21:44:22.776Z,99470.94
2022-08-27T21:49:24.414Z,99460.22
2022-08-27T21:54:26.613Z,99458.00
2022-08-27T21:59:31.746Z,99455.81
2022-08-27T22:04:33.996Z,99445.78
2022-08-27T22:09:36.148Z,99444.22
2022-08-27T22:14:38.936Z,99445.34
2022-08-27T22:19:40.605Z,99445.63
2022-08-27T22:24:42.416Z,99445.13
2022-08-27T22:29:44.285Z,99446.00
2022-08-27T22:34:46.117Z,99461.38
2022-08-27T22:39:47.898Z,99487.16
2022-08-27T22:44:49.535Z,99575.47
2022-08-27T22:49:52.918Z,99583.03
2022-08-27T22:54:55.203Z,99568.94
2022-08-27T22:59:58.285Z,99542.22
2022-08-27T23:05:03.511Z,99548.16
2022-08-27T23:10:09.479Z,99544.88
2022-08-27T23:15:11.650Z,99538.75
2022-08-27T23:20:13.832Z,99539.03
2022-08-27T23:25:34.448Z,99549.16
2022-08-27T23:30:36.835Z,99549.03
2022-08-27T23:35:38.820Z,99549.25
2022-08-27T23:40:41.031Z,99547.00
2022-08-27T23:45:43.509Z,99551.59
2022-08-27T23:50:45.272Z,99544.53
2022-08-27T23:55:47.185Z,99543.59
